.
WxDataArchive / Data Records for 2012-09-21
2012-09-20 September 2012 2012-09-22

Data Records for Friday, 21 September 2012

Time	Temp	Chill	HIndex	Humid	Dewpt	 Wind 	HiWind	WindDir	Rain 	Barom 
-----	----	-----	------	-----	-----	------	------	-------	-----	----- 
00:00	52.5	52.5	52.5	76	45.2	0	0	---	0.00	29.912 
00:05	52.3	52.3	52.3	76	45.0	0	0	---	0.00	29.912 
00:10	52.2	52.2	52.2	77	45.2	0	0	---	0.00	29.912 
00:15	51.9	51.9	51.9	77	44.9	0	0	---	0.00	29.911 
00:20	51.7	51.7	51.7	77	44.7	0	0	---	0.00	29.911 
00:25	51.6	51.6	51.6	78	45.0	0	0	---	0.00	29.911 
00:30	51.4	51.4	51.4	78	44.8	0	0	---	0.00	29.910 
00:35	51.3	51.3	51.3	78	44.7	0	0	---	0.00	29.910 
00:40	51.1	51.1	51.1	79	44.8	0	0	---	0.00	29.910 
00:45	51.0	51.0	51.0	79	44.7	0	0	---	0.00	29.910 
00:50	50.7	50.7	50.7	79	44.4	0	0	---	0.00	29.910 
00:55	50.5	50.5	50.5	80	44.6	0	0	---	0.00	29.910 
01:00	50.5	50.5	50.5	80	44.6	0	0	---	0.00	29.909 
01:05	50.5	50.5	50.5	80	44.6	0	0	---	0.00	29.909 
01:10	50.7	50.7	50.7	80	44.8	0	0	---	0.00	29.909 
01:15	50.8	50.8	50.8	79	44.5	0	0	---	0.00	29.908 
01:20	51.3	51.3	51.3	78	44.7	0	0	---	0.00	29.908 
01:25	51.9	51.9	51.9	75	44.2	0	1	292	0.00	29.908 
01:30	52.8	52.8	52.8	72	44.0	0	1	---	0.00	29.907 
01:35	53.5	53.5	53.5	69	43.6	0	1	292	0.00	29.907 
01:40	54.4	54.4	54.4	66	43.3	0	1	292	0.00	29.907 
01:45	54.8	54.8	54.8	64	42.9	0	1	292	0.00	29.906 
01:50	55.1	55.1	55.1	63	42.7	0	0	---	0.00	29.906 
01:55	55.1	55.1	55.1	62	42.3	0	1	292	0.00	29.906 
02:00	55.1	55.1	55.1	62	42.3	0	0	---	0.00	29.909 
02:05	55.1	55.1	55.1	62	42.3	0	1	292	0.00	29.909 
02:10	55.0	55.0	55.0	62	42.2	0	0	---	0.00	29.909 
02:15	54.7	54.7	54.7	62	41.9	0	0	---	0.00	29.913 
02:20	54.4	54.4	54.4	62	41.7	0	0	---	0.00	29.913 
02:25	54.1	54.1	54.1	62	41.4	0	0	---	0.00	29.913 
02:30	53.8	53.8	53.8	63	41.5	0	0	---	0.00	29.919 
02:35	53.5	53.5	53.5	64	41.6	0	0	---	0.00	29.919 
02:40	53.3	53.3	53.3	64	41.4	0	0	---	0.00	29.919 
02:45	53.1	53.1	53.1	64	41.2	0	0	---	0.00	29.920 
02:50	52.9	52.9	52.9	64	41.1	0	0	---	0.00	29.920 
02:55	52.6	52.6	52.6	64	40.8	0	0	---	0.00	29.920 
03:00	52.2	52.2	52.2	65	40.8	0	0	---	0.00	29.916 
03:05	51.9	51.9	51.9	66	40.9	0	0	---	0.00	29.916 
03:10	51.6	51.6	51.6	67	41.0	0	0	---	0.00	29.916 
03:15	51.3	51.3	51.3	68	41.1	0	0	---	0.00	29.916 
03:20	51.0	51.0	51.0	68	40.8	0	0	---	0.00	29.916 
03:25	50.7	50.7	50.7	69	40.9	0	0	---	0.00	29.916 
03:30	50.4	50.4	50.4	69	40.6	0	0	---	0.00	29.919 
03:35	50.2	50.2	50.2	70	40.8	0	0	---	0.00	29.919 
03:40	50.1	50.1	50.1	70	40.7	0	0	---	0.00	29.919 
03:45	49.8	49.8	49.8	71	40.8	0	0	---	0.00	29.921 
03:50	49.6	49.6	49.6	71	40.6	0	0	---	0.00	29.921 
03:55	49.5	49.5	49.5	71	40.5	0	0	---	0.00	29.921 
04:00	49.4	49.4	49.4	72	40.8	0	0	---	0.00	29.921 
04:05	49.4	49.4	49.4	72	40.8	0	0	---	0.00	29.921 
04:10	49.6	49.6	49.6	71	40.6	0	0	---	0.00	29.921 
04:15	49.8	49.8	49.8	71	40.8	0	0	---	0.00	29.924 
04:20	49.8	49.8	49.8	70	40.4	0	0	---	0.00	29.924 
04:25	49.8	49.8	49.8	70	40.4	0	0	---	0.00	29.924 
04:30	49.8	49.8	49.8	70	40.4	0	0	---	0.00	29.924 
04:35	49.9	49.9	49.9	70	40.5	0	0	---	0.00	29.924 
04:40	50.1	50.1	50.1	69	40.3	0	1	292	0.00	29.924 
04:45	50.2	50.2	50.2	69	40.4	0	0	---	0.00	29.919 
04:50	50.4	50.4	50.4	69	40.6	0	1	292	0.00	29.919 
04:55	50.4	50.4	50.4	68	40.2	0	0	---	0.00	29.919 
05:00	50.4	50.4	50.4	69	40.6	0	0	---	0.00	29.923 
05:05	50.2	50.2	50.2	69	40.4	0	0	---	0.00	29.923 
05:10	50.1	50.1	50.1	69	40.3	0	0	---	0.00	29.923 
05:15	50.1	50.1	50.1	69	40.3	0	0	---	0.00	29.926 
05:20	49.9	49.9	49.9	69	40.1	0	0	---	0.00	29.926 
05:25	49.8	49.8	49.8	69	40.0	0	0	---	0.00	29.926 
05:30	49.8	49.8	49.8	69	40.0	0	0	---	0.00	29.923 
05:35	49.6	49.6	49.6	70	40.2	0	0	---	0.00	29.923 
05:40	49.6	49.6	49.6	70	40.2	0	0	---	0.00	29.923 
05:45	49.6	49.6	49.6	70	40.2	0	0	---	0.00	29.924 
05:50	49.6	49.6	49.6	70	40.2	0	0	---	0.00	29.924 
05:55	49.6	49.6	49.6	70	40.2	0	0	---	0.00	29.924 
06:00	49.5	49.5	49.5	71	40.5	0	0	---	0.00	29.925 
06:05	49.5	49.5	49.5	71	40.5	0	0	---	0.00	29.925 
06:10	49.4	49.4	49.4	72	40.8	0	0	---	0.00	29.925 
06:15	49.2	49.2	49.2	72	40.6	0	0	---	0.00	29.927 
06:20	49.1	49.1	49.1	71	40.1	0	0	---	0.00	29.927 
06:25	48.9	48.9	48.9	71	39.9	0	0	---	0.00	29.927 
06:30	48.9	48.9	48.9	71	39.9	0	0	---	0.00	29.929 
06:35	48.9	48.9	48.9	71	39.9	0	0	---	0.00	29.929 
06:40	49.1	49.1	49.1	71	40.1	0	0	---	0.00	29.929 
06:45	49.1	49.1	49.1	71	40.1	0	0	---	0.00	29.928 
06:50	48.9	48.9	48.9	71	39.9	0	0	---	0.00	29.928 
06:55	48.8	48.8	48.8	71	39.8	0	0	---	0.00	29.928 
07:00	48.5	48.5	48.5	72	39.9	0	0	---	0.00	29.930 
07:05	48.3	48.3	48.3	73	40.1	0	0	---	0.00	29.930 
07:10	48.0	48.0	48.0	73	39.8	0	0	---	0.00	29.930 
07:15	48.0	48.0	48.0	73	39.8	0	0	---	0.00	29.933 
07:20	47.9	47.9	47.9	73	39.7	0	0	---	0.00	29.933 
07:25	47.9	47.9	47.9	73	39.7	0	0	---	0.00	29.933 
07:30	47.7	47.7	47.7	74	39.8	0	0	---	0.00	29.939 
07:35	47.7	47.7	47.7	74	39.8	0	0	---	0.00	29.939 
07:40	47.7	47.7	47.7	74	39.8	0	0	---	0.00	29.939 
07:45	47.6	47.6	47.6	75	40.1	0	0	---	0.00	29.946 
07:50	47.6	47.6	47.6	75	40.1	0	0	---	0.00	29.946 
07:55	47.4	47.4	47.4	75	39.9	0	0	---	0.00	29.946 
08:00	47.3	47.3	47.3	75	39.8	0	0	---	0.00	29.948 
08:05	47.1	47.1	47.1	75	39.6	0	0	---	0.00	29.948 
08:10	47.1	47.1	47.1	75	39.6	0	0	---	0.00	29.948 
08:15	47.1	47.1	47.1	76	39.9	0	0	---	0.00	29.950 
08:20	47.1	47.1	47.1	76	39.9	0	0	---	0.00	29.950 
08:25	47.1	47.1	47.1	76	39.9	0	0	---	0.00	29.950 
08:30	47.3	47.3	47.3	76	40.1	0	0	---	0.00	29.951 
08:35	47.3	47.3	47.3	77	40.5	0	0	---	0.00	29.951 
08:40	47.6	47.6	47.6	77	40.8	0	0	---	0.00	29.951 
08:45	47.7	47.7	47.7	78	41.2	0	0	---	0.00	29.950 
08:50	48.3	48.3	48.3	77	41.4	0	0	---	0.00	29.950 
08:55	48.9	48.9	48.9	77	42.0	0	0	---	0.00	29.950 
09:00	49.4	49.4	49.4	76	42.2	0	0	---	0.00	29.949 
09:05	49.9	49.9	49.9	73	41.6	0	0	---	0.00	29.949 
09:10	50.2	50.2	50.2	73	41.9	0	0	---	0.00	29.949 
09:15	50.5	50.5	50.5	73	42.2	0	0	---	0.00	29.950 
09:20	51.0	51.0	51.0	72	42.3	0	1	292	0.00	29.950 
09:25	51.7	51.7	51.7	71	42.6	0	0	---	0.00	29.950 
09:30	52.5	52.5	52.5	67	41.9	0	1	292	0.00	29.945 
09:35	53.2	53.2	53.2	66	42.1	0	1	292	0.00	29.945 
09:40	53.6	53.6	53.6	63	41.3	0	1	292	0.00	29.945 
09:45	54.1	54.1	54.1	62	41.4	0	0	---	0.00	29.948 
09:50	54.4	54.4	54.4	62	41.7	0	0	---	0.00	29.948 
09:55	54.7	54.7	54.7	62	41.9	0	0	---	0.00	29.948 
10:00	55.3	55.3	55.3	60	41.7	0	1	292	0.00	29.948 
10:05	56.0	56.0	56.0	57	41.0	0	2	292	0.00	29.948 
10:10	56.7	56.7	56.7	55	40.7	0	1	292	0.00	29.948 
10:15	57.5	57.5	57.5	55	41.5	0	1	292	0.00	29.948 
10:20	58.3	58.3	58.3	53	41.2	0	1	292	0.00	29.948 
10:25	59.3	59.3	59.3	50	40.7	0	2	292	0.00	29.948 
10:30	60.1	60.1	60.1	49	40.9	0	1	292	0.00	29.947 
10:35	61.2	61.2	61.2	46	40.3	0	3	292	0.00	29.947 
10:40	62.0	62.0	62.0	43	39.2	1	4	292	0.00	29.947 
10:45	62.4	62.4	62.4	45	40.8	0	2	248	0.00	29.948 
10:50	63.2	63.2	63.2	45	41.5	0	1	248	0.00	29.948 
10:55	63.9	63.9	63.9	44	41.6	0	3	248	0.00	29.948 
11:00	64.2	64.2	64.2	44	41.8	0	2	248	0.00	29.951 
11:05	64.5	64.5	64.5	41	40.3	1	2	248	0.00	29.951 
11:10	64.7	64.7	64.7	40	39.8	1	5	270	0.00	29.951 
11:15	65.0	65.0	65.0	40	40.1	0	4	225	0.00	29.943 
11:20	65.2	65.2	65.2	40	40.3	0	2	68	0.00	29.943 
11:25	65.2	65.2	65.2	42	41.5	0	3	68	0.00	29.943 
11:30	65.2	65.2	65.2	38	38.9	1	3	270	0.00	29.941 
11:35	65.3	65.3	65.3	39	39.7	1	3	270	0.00	29.941 
11:40	65.3	65.3	65.3	39	39.7	0	2	270	0.00	29.941 
11:45	65.3	65.3	65.3	38	39.0	1	3	248	0.00	29.943 
11:50	65.8	65.8	65.8	39	40.1	0	2	248	0.00	29.943 
11:55	66.3	66.3	66.3	36	38.5	1	2	248	0.00	29.943 
12:00	66.6	66.6	66.6	35	38.1	1	3	248	0.00	29.938 
12:05	66.8	66.8	66.8	34	37.5	1	4	248	0.00	29.938 
12:10	66.9	66.9	66.9	33	36.9	1	3	248	0.00	29.938 
12:15	67.3	67.3	67.3	35	38.7	1	4	248	0.00	29.930 
12:20	67.3	67.3	67.3	35	38.7	1	5	112	0.00	29.930 
12:25	66.8	66.8	66.8	35	38.3	2	5	270	0.00	29.930 
12:30	66.8	66.8	66.8	34	37.5	1	4	248	0.00	29.929 
12:35	67.3	67.3	67.3	34	38.0	1	4	270	0.00	29.929 
12:40	67.8	67.8	67.8	33	37.6	1	5	248	0.00	29.929 
12:45	67.9	67.9	67.9	34	38.5	1	4	270	0.00	29.927 
12:50	68.1	68.1	68.1	31	36.3	1	5	248	0.00	29.927 
12:55	68.1	68.1	68.1	33	37.9	1	4	248	0.00	29.927 
13:00	68.3	68.3	68.3	32	37.3	1	4	248	0.00	29.922 
13:05	68.6	68.6	68.6	33	38.3	1	2	270	0.00	29.922 
13:10	68.8	68.8	68.8	31	36.9	1	4	292	0.00	29.922 
13:15	68.8	68.8	68.8	31	36.9	1	4	248	0.00	29.914 
13:20	69.3	69.3	69.3	32	38.2	1	3	292	0.00	29.914 
13:25	69.8	69.8	69.8	31	37.8	1	4	248	0.00	29.914 
13:30	70.3	70.3	70.3	32	39.0	1	3	248	0.00	29.907 
13:35	70.8	70.8	70.8	30	37.8	1	4	248	0.00	29.907 
13:40	70.9	70.9	70.9	29	37.0	0	2	248	0.00	29.907 
13:45	70.8	70.8	70.8	28	36.1	1	3	248	0.00	29.899 
13:50	70.4	70.4	70.4	28	35.7	0	2	270	0.00	29.899 
13:55	70.1	70.1	70.1	28	35.5	1	3	270	0.00	29.899 
14:00	69.9	69.9	69.9	27	34.4	1	2	248	0.00	29.891 
14:05	69.9	69.9	69.9	27	34.4	1	3	248	0.00	29.891 
14:10	69.8	69.8	69.8	28	35.2	1	3	248	0.00	29.891 
14:15	69.9	69.9	69.9	27	34.4	1	3	248	0.00	29.879 
14:20	70.3	70.3	70.3	27	34.7	2	4	270	0.00	29.879 
14:25	70.8	70.8	70.8	27	35.2	1	2	248	0.00	29.879 
14:30	71.1	71.1	71.1	29	37.2	0	2	248	0.00	29.874 
14:35	71.6	71.6	71.6	30	38.5	1	3	248	0.00	29.874 
14:40	71.5	71.5	71.5	28	36.7	1	3	248	0.00	29.874 
14:45	71.1	71.1	71.1	27	35.4	2	7	292	0.00	29.866 
14:50	70.8	70.8	70.8	27	35.2	1	4	270	0.00	29.866 
14:55	70.4	70.4	70.4	28	35.7	1	4	292	0.00	29.866 
15:00	70.6	70.6	70.6	28	35.9	0	3	225	0.00	29.858 
15:05	70.6	70.6	70.6	28	35.9	1	4	248	0.00	29.858 
15:10	70.6	70.6	70.6	29	36.8	1	3	68	0.00	29.858 
15:15	70.3	70.3	70.3	28	35.6	1	4	248	0.00	29.856 
15:20	70.3	70.3	70.3	29	36.5	0	1	248	0.00	29.856 
15:25	70.4	70.4	70.4	30	37.5	0	2	248	0.00	29.856 
15:30	70.4	70.4	70.4	29	36.6	1	2	248	0.00	29.853 
15:35	70.8	70.8	70.8	28	36.1	1	3	248	0.00	29.853 
15:40	70.8	70.8	70.8	28	36.1	1	3	248	0.00	29.853 
15:45	70.6	70.6	70.6	31	38.5	0	1	248	0.00	29.850 
15:50	70.1	70.1	70.1	27	34.6	0	1	248	0.00	29.850 
15:55	69.6	69.6	69.6	30	36.8	0	1	248	0.00	29.850 
16:00	69.3	69.3	69.3	29	35.7	0	2	248	0.00	29.850 
16:05	68.6	68.6	68.6	35	39.8	0	1	248	0.00	29.850 
16:10	68.3	68.3	68.3	37	41.0	0	0	---	0.00	29.850 
16:15	67.8	67.8	67.8	34	38.4	0	1	248	0.00	29.844 
16:20	67.3	67.3	67.3	35	38.7	0	2	248	0.00	29.844 
16:25	67.1	67.1	67.1	34	37.8	0	1	248	0.00	29.844 
16:30	67.1	67.1	67.1	36	39.2	0	2	248	0.00	29.849 
16:35	67.1	67.1	67.1	34	37.8	0	2	248	0.00	29.849 
16:40	67.3	67.3	67.3	37	40.1	0	2	248	0.00	29.849 
16:45	67.1	67.1	67.1	36	39.2	0	2	248	0.00	29.841 
16:50	67.1	67.1	67.1	36	39.2	0	1	248	0.00	29.841 
16:55	66.8	66.8	66.8	35	38.3	0	2	248	0.00	29.841 
17:00	66.4	66.4	66.4	34	37.2	0	2	338	0.00	29.848 
17:05	66.3	66.3	66.3	33	36.3	0	3	225	0.00	29.848 
17:10	66.0	66.0	66.0	36	38.3	0	2	225	0.00	29.848 
17:15	65.6	65.6	65.6	36	37.9	1	4	248	0.00	29.849 
17:20	65.2	65.2	65.2	36	37.6	1	4	270	0.00	29.849 
17:25	65.0	65.0	65.0	37	38.1	1	4	225	0.00	29.849 
17:30	64.7	64.7	64.7	37	37.8	0	3	225	0.00	29.865 
17:35	64.5	64.5	64.5	37	37.6	0	2	225	0.00	29.865 
17:40	64.3	64.3	64.3	39	38.8	0	2	338	0.00	29.865 
17:45	63.5	63.5	63.5	50	44.5	0	3	338	0.01	29.847 
17:50	62.3	62.3	62.3	54	45.4	0	2	22	0.00	29.847 
17:55	61.0	61.0	61.0	58	46.1	0	1	22	0.00	29.847 
18:00	60.1	60.1	60.1	62	47.0	0	0	---	0.00	29.836 
18:05	59.6	59.6	59.6	65	47.8	0	0	---	0.01	29.836 
18:10	59.3	59.3	59.3	69	49.1	0	0	---	0.00	29.836 
18:15	58.9	58.9	58.9	70	49.1	0	0	---	0.00	29.825 
18:20	58.6	58.6	58.6	70	48.8	0	0	---	0.00	29.825 
18:25	58.6	58.6	58.6	72	49.6	0	1	22	0.00	29.825 
18:30	58.4	58.4	58.4	68	47.9	0	1	22	0.00	29.830 
18:35	58.6	58.6	58.6	69	48.5	0	0	---	0.00	29.830 
18:40	58.6	58.6	58.6	63	46.0	0	2	112	0.00	29.830 
18:45	58.7	58.7	58.7	62	45.7	0	2	112	0.00	29.839 
18:50	58.9	58.9	58.9	64	46.7	0	1	112	0.00	29.839 
18:55	58.7	58.7	58.7	66	47.4	0	0	---	0.00	29.839 
19:00	58.6	58.6	58.6	66	47.3	0	1	112	0.00	29.848 
19:05	58.4	58.4	58.4	64	46.3	0	2	112	0.00	29.848 
19:10	58.3	58.3	58.3	63	45.8	0	3	112	0.00	29.848 
19:15	58.3	58.3	58.3	62	45.3	0	2	112	0.00	29.836 
19:20	58.1	58.1	58.1	65	46.4	0	2	112	0.00	29.836 
19:25	58.0	58.0	58.0	66	46.7	1	4	112	0.00	29.836 
19:30	57.5	57.5	57.5	69	47.4	1	6	68	0.00	29.831 
19:35	57.0	57.0	57.0	72	48.1	0	3	90	0.01	29.831 
19:40	56.6	56.6	56.6	75	48.8	0	1	90	0.01	29.831 
19:45	55.9	55.9	55.9	77	48.8	1	3	90	0.01	29.847 
19:50	55.3	55.3	55.3	80	49.2	0	1	90	0.02	29.847 
19:55	54.7	54.7	54.7	82	49.3	0	3	90	0.01	29.847 
20:00	54.2	54.2	54.2	84	49.5	0	1	90	0.02	29.853 
20:05	53.8	53.8	53.8	86	49.7	0	1	90	0.02	29.853 
20:10	53.5	53.5	53.5	87	49.7	0	1	90	0.02	29.853 
20:15	53.2	53.2	53.2	87	49.4	0	0	---	0.01	29.860 
20:20	53.1	53.1	53.1	88	49.6	0	0	---	0.02	29.860 
20:25	52.8	52.8	52.8	88	49.3	0	0	---	0.01	29.860 
20:30	52.8	52.8	52.8	89	49.6	0	0	---	0.02	29.850 
20:35	52.6	52.6	52.6	89	49.4	0	0	---	0.01	29.850 
20:40	52.6	52.6	52.6	89	49.4	0	0	---	0.02	29.850 
20:45	52.5	52.5	52.5	90	49.7	0	0	---	0.02	29.838 
20:50	52.3	52.3	52.3	90	49.5	0	0	---	0.01	29.838 
20:55	52.5	52.5	52.5	91	49.9	1	2	90	0.01	29.838 
21:00	52.3	52.3	52.3	91	49.8	1	3	90	0.01	29.808 
21:05	52.0	52.0	52.0	91	49.5	1	3	90	0.00	29.808 
21:10	51.9	51.9	51.9	92	49.6	1	6	90	0.01	29.808 
21:15	51.7	51.7	51.7	92	49.5	1	3	68	0.00	29.779 
21:20	51.6	51.6	51.6	92	49.4	0	2	68	0.00	29.779 
21:25	51.6	51.6	51.6	92	49.4	0	2	68	0.00	29.779 
21:30	51.6	51.6	51.6	92	49.4	1	5	68	0.00	29.790 
21:35	51.4	51.4	51.4	92	49.2	1	4	68	0.00	29.790 
21:40	51.4	51.4	51.4	92	49.2	1	3	45	0.00	29.790 
21:45	51.3	51.3	51.3	92	49.1	0	2	45	0.00	29.783 
21:50	51.3	51.3	51.3	92	49.1	0	2	45	0.00	29.783 
21:55	51.3	51.3	51.3	92	49.1	0	2	45	0.00	29.783 
22:00	51.3	51.3	51.3	92	49.1	0	0	---	0.00	29.779 
22:05	51.1	51.1	51.1	92	48.9	0	0	---	0.00	29.779 
22:10	51.1	51.1	51.1	92	48.9	0	1	45	0.00	29.779 
22:15	51.1	51.1	51.1	93	49.1	0	0	---	0.00	29.785 
22:20	51.0	51.0	51.0	93	49.0	0	0	---	0.00	29.785 
22:25	51.0	51.0	51.0	93	49.0	0	0	---	0.00	29.785 
22:30	51.0	51.0	51.0	93	49.0	0	0	---	0.00	29.770 
22:35	51.1	51.1	51.1	93	49.1	0	1	45	0.00	29.770 
22:40	51.1	51.1	51.1	93	49.1	0	0	---	0.00	29.770 
22:45	51.1	51.1	51.1	93	49.1	0	0	---	0.00	29.773 
22:50	51.1	51.1	51.1	93	49.1	0	0	---	0.00	29.773 
22:55	51.1	51.1	51.1	93	49.1	0	0	---	0.00	29.773 
23:00	51.1	51.1	51.1	93	49.1	0	0	---	0.00	29.778 
23:05	51.1	51.1	51.1	93	49.1	0	1	45	0.00	29.778 
23:10	51.1	51.1	51.1	93	49.1	0	0	---	0.00	29.778 
23:15	51.1	51.1	51.1	93	49.1	0	0	---	0.00	29.781 
23:20	51.3	51.3	51.3	94	49.6	0	0	---	0.00	29.781 
23:25	51.3	51.3	51.3	94	49.6	0	0	---	0.00	29.781 
23:30	51.3	51.3	51.3	94	49.6	0	0	---	0.00	29.771 
23:35	51.4	51.4	51.4	94	49.7	0	0	---	0.00	29.771 
23:40	51.4	51.4	51.4	94	49.7	0	0	---	0.00	29.771 
23:45	51.4	51.4	51.4	94	49.7	0	0	---	0.00	29.766 
23:50	51.4	51.4	51.4	94	49.7	0	0	---	0.00	29.766 
23:55	51.6	51.6	51.6	94	49.9	0	0	---	0.00	29.766 

CoCoRaHS
IN-AL-39
A2 Web Hosting
Creative Commons License
GoDaddy
search engine by freefind advanced

loaded 2018-11-17 05:33:27 • last modified 2010-11-18 10:43:29
Privacy PolicyDisclaimer
• wx.awcolley.com is powered by PmWiki v.2002016 •
• all content (unless otherwise noted) © 2018 A W Colley